createdAt,value
2023-02-11T00:01:43.868Z,23.73
2023-02-11T00:06:42.735Z,24.80
2023-02-11T00:11:41.508Z,23.80
2023-02-11T00:16:40.672Z,24.52
2023-02-11T00:21:40.407Z,24.63
2023-02-11T00:26:39.110Z,21.30
2023-02-11T00:31:37.984Z,26.08
2023-02-11T00:36:37.432Z,21.05
2023-02-11T00:41:36.192Z,23.48
2023-02-11T00:46:35.116Z,21.35
2023-02-11T00:51:34.020Z,23.40
2023-02-11T00:56:35.759Z,28.08
2023-02-11T01:01:34.925Z,24.65
2023-02-11T01:06:33.823Z,23.77
2023-02-11T01:11:32.566Z,30.00
2023-02-11T01:16:31.510Z,26.35
2023-02-11T01:21:30.457Z,24.17
2023-02-11T01:26:29.395Z,27.02
2023-02-11T01:31:31.320Z,24.48
2023-02-11T01:36:32.695Z,25.13
2023-02-11T01:41:32.593Z,26.63
2023-02-11T01:46:36.879Z,22.60
2023-02-11T01:51:43.978Z,23.77
2023-02-11T01:57:04.988Z,22.90
2023-02-11T02:02:09.986Z,23.98
2023-02-11T02:07:14.599Z,26.48
2023-02-11T02:12:13.367Z,24.25
2023-02-11T02:17:29.366Z,21.45
2023-02-11T02:28:27.280Z,24.17
2023-02-11T02:33:32.117Z,25.13
2023-02-11T02:38:37.881Z,28.27
2023-02-11T02:43:42.673Z,25.00
2023-02-11T02:48:42.147Z,23.17
2023-02-11T02:54:18.864Z,27.60
2023-02-11T02:59:29.494Z,24.02
2023-02-11T03:04:41.122Z,20.52
2023-02-11T03:10:03.344Z,22.95
2023-02-11T03:15:05.662Z,27.00
2023-02-11T03:20:06.990Z,21.95
2023-02-11T03:25:06.227Z,23.88
2023-02-11T03:30:51.682Z,24.75
2023-02-11T03:35:50.582Z,23.27
2023-02-11T03:40:50.827Z,23.17
2023-02-11T03:45:53.450Z,28.55
2023-02-11T03:50:54.536Z,26.13
2023-02-11T03:55:57.048Z,21.80
2023-02-11T04:00:56.065Z,27.80
2023-02-11T04:05:54.851Z,23.85
2023-02-11T04:10:53.640Z,31.75
2023-02-11T04:15:52.637Z,22.52
2023-02-11T04:20:51.866Z,25.20
2023-02-11T04:25:50.980Z,27.70
2023-02-11T04:30:51.616Z,25.10
2023-02-11T04:35:50.869Z,27.65
2023-02-11T04:40:50.292Z,29.02
2023-02-11T04:45:49.410Z,27.00
2023-02-11T04:50:48.371Z,25.40
2023-02-11T04:55:53.285Z,25.25
2023-02-11T05:00:52.463Z,28.02
2023-02-11T05:05:51.602Z,27.70
2023-02-11T05:10:50.480Z,32.22
2023-02-11T05:15:49.697Z,27.65
2023-02-11T05:20:48.655Z,28.10
2023-02-11T05:25:47.498Z,24.27
2023-02-11T05:30:46.312Z,32.83
2023-02-11T05:35:45.132Z,30.80
2023-02-11T05:40:44.916Z,30.15
2023-02-11T05:45:43.729Z,30.20
2023-02-11T05:50:42.734Z,27.58
2023-02-11T05:55:41.443Z,30.38
2023-02-11T06:00:40.326Z,30.42
2023-02-11T06:05:39.214Z,27.40
2023-02-11T06:10:38.440Z,32.20
2023-02-11T06:15:37.308Z,26.38
2023-02-11T06:20:37.305Z,33.67
2023-02-11T06:25:37.195Z,25.67
2023-02-11T06:30:37.547Z,33.47
2023-02-11T06:35:39.804Z,30.60
2023-02-11T06:40:38.669Z,27.77
2023-02-11T06:45:37.429Z,28.90
2023-02-11T06:50:36.210Z,27.92
2023-02-11T06:55:35.472Z,27.02
2023-02-11T07:00:34.464Z,28.63
2023-02-11T07:05:34.445Z,23.92
2023-02-11T07:10:34.064Z,30.48
2023-02-11T07:15:33.041Z,31.35
2023-02-11T07:20:31.864Z,28.02
2023-02-11T07:25:30.996Z,27.60
2023-02-11T07:30:29.852Z,19.33
2023-02-11T07:35:28.824Z,34.83
2023-02-11T07:40:27.535Z,30.58
2023-02-11T07:45:26.356Z,31.58
2023-02-11T07:50:25.425Z,32.03
2023-02-11T07:55:24.401Z,28.83
2023-02-11T08:00:23.260Z,28.75
2023-02-11T08:05:22.232Z,30.27
2023-02-11T08:10:21.729Z,25.85
2023-02-11T08:15:20.896Z,28.35
2023-02-11T08:20:19.922Z,28.33
2023-02-11T08:25:18.828Z,20.92
2023-02-11T08:30:17.629Z,26.35
2023-02-11T08:35:16.599Z,29.42
2023-02-11T08:40:15.613Z,26.42
2023-02-11T08:45:14.434Z,28.88
2023-02-11T08:50:13.491Z,41.90
2023-02-11T08:55:12.200Z,29.20
2023-02-11T09:00:12.838Z,24.20
2023-02-11T09:05:11.758Z,23.00
2023-02-11T09:10:12.163Z,22.17
2023-02-11T09:15:11.030Z,28.52
2023-02-11T09:20:10.892Z,26.58
2023-02-11T09:25:09.792Z,29.17
2023-02-11T09:30:09.278Z,30.50
2023-02-11T09:35:08.513Z,26.60
2023-02-11T09:40:08.299Z,30.20
2023-02-11T09:45:16.707Z,23.70
2023-02-11T09:50:22.958Z,31.00
2023-02-11T09:55:34.277Z,20.77
2023-02-11T10:00:43.310Z,26.48
2023-02-11T10:06:19.995Z,26.90
2023-02-11T10:11:35.781Z,27.08
2023-02-11T10:22:19.822Z,28.60
2023-02-11T10:27:21.786Z,26.60
2023-02-11T10:33:16.080Z,27.10
2023-02-11T10:38:14.954Z,28.80
2023-02-11T10:43:16.668Z,29.48
2023-02-11T10:48:43.512Z,27.52
2023-02-11T10:53:42.490Z,25.75
2023-02-11T10:58:45.636Z,26.65
2023-02-11T11:03:51.422Z,25.60
2023-02-11T11:08:51.800Z,24.23
2023-02-11T11:13:53.740Z,26.63
2023-02-11T11:19:08.065Z,27.38
2023-02-11T11:24:20.360Z,26.73
2023-02-11T11:29:30.844Z,30.10
2023-02-11T11:34:42.137Z,25.80
2023-02-11T11:39:40.937Z,26.38
2023-02-11T11:44:42.912Z,26.73
2023-02-11T11:50:29.760Z,24.95
2023-02-11T11:55:42.541Z,22.63
2023-02-11T12:00:54.950Z,23.10
2023-02-11T12:06:20.122Z,24.90
2023-02-11T12:11:35.094Z,25.38
2023-02-11T12:16:50.574Z,25.75
2023-02-11T12:21:58.244Z,25.23
2023-02-11T12:27:10.874Z,20.10
2023-02-11T12:32:24.866Z,18.75
2023-02-11T12:38:16.103Z,23.27
2023-02-11T12:43:20.897Z,17.73
2023-02-11T12:48:35.830Z,19.08
2023-02-11T12:53:59.294Z,21.20
2023-02-11T12:59:00.693Z,27.50
2023-02-11T13:04:13.372Z,23.85
2023-02-11T13:09:21.267Z,23.75
2023-02-11T13:14:36.576Z,25.15
2023-02-11T13:19:51.222Z,22.38
2023-02-11T13:24:55.990Z,24.00
2023-02-11T13:30:20.024Z,26.20
2023-02-11T13:35:45.199Z,21.30
2023-02-11T13:40:44.538Z,25.08
2023-02-11T13:45:46.083Z,25.38
2023-02-11T13:50:54.762Z,25.88
2023-02-11T13:56:07.982Z,22.20
2023-02-11T14:01:07.877Z,20.85
2023-02-11T14:06:28.249Z,26.83
2023-02-11T14:11:33.477Z,24.60
2023-02-11T14:16:38.472Z,22.63
2023-02-11T14:21:42.484Z,24.08
2023-02-11T14:31:59.318Z,22.00
2023-02-11T14:37:10.512Z,25.00
2023-02-11T14:42:19.606Z,23.40
2023-02-11T14:47:44.063Z,21.63
2023-02-11T14:52:43.674Z,24.88
2023-02-11T14:57:44.718Z,25.90
2023-02-11T15:02:44.610Z,21.23
2023-02-11T15:07:50.057Z,25.13
2023-02-11T15:12:49.612Z,23.25
2023-02-11T15:17:48.604Z,27.23
2023-02-11T15:22:49.179Z,23.77
2023-02-11T15:27:54.008Z,25.48
2023-02-11T15:32:58.757Z,23.42
2023-02-11T15:37:59.708Z,28.30
2023-02-11T15:43:07.752Z,22.50
2023-02-11T15:48:09.310Z,18.95
2023-02-11T15:53:29.000Z,20.23
2023-02-11T15:58:27.910Z,22.77
2023-02-11T16:03:32.738Z,21.30
2023-02-11T16:08:32.878Z,21.38
2023-02-11T16:13:35.105Z,23.73
2023-02-11T16:18:39.956Z,26.30
2023-02-11T16:23:44.276Z,25.80
2023-02-11T16:28:43.003Z,29.25
2023-02-11T16:33:41.683Z,24.17
2023-02-11T16:38:40.529Z,25.20
2023-02-11T16:43:40.416Z,22.27
2023-02-11T16:48:39.196Z,26.23
2023-02-11T16:53:37.928Z,24.80
2023-02-11T16:58:36.763Z,25.25
2023-02-11T17:03:40.702Z,27.63
2023-02-11T17:08:40.190Z,28.92
2023-02-11T17:13:41.139Z,22.60
2023-02-11T17:18:40.143Z,25.58
2023-02-11T17:23:39.131Z,25.17
2023-02-11T17:28:40.956Z,25.98
2023-02-11T17:33:40.181Z,29.05
2023-02-11T17:38:39.355Z,27.35
2023-02-11T17:43:38.417Z,21.10
2023-02-11T17:48:38.656Z,24.38
2023-02-11T17:53:37.678Z,25.45
2023-02-11T17:58:36.683Z,24.77
2023-02-11T18:03:35.687Z,20.42
2023-02-11T18:08:36.139Z,22.33
2023-02-11T18:13:35.119Z,22.23
2023-02-11T18:18:34.648Z,23.67
2023-02-11T18:23:33.686Z,21.75
2023-02-11T18:28:32.510Z,24.83
2023-02-11T18:33:31.773Z,25.50
2023-02-11T18:38:30.608Z,24.25
2023-02-11T18:43:34.563Z,19.58
2023-02-11T18:48:33.375Z,22.73
2023-02-11T18:53:32.320Z,23.02
2023-02-11T18:58:31.253Z,21.73
2023-02-11T19:03:30.306Z,23.65
2023-02-11T19:08:29.129Z,25.80
2023-02-11T19:13:29.206Z,25.92
2023-02-11T19:18:28.218Z,26.30
2023-02-11T19:23:27.235Z,25.30
2023-02-11T19:28:26.051Z,23.65
2023-02-11T19:33:25.157Z,21.02
2023-02-11T19:38:24.168Z,19.50
2023-02-11T19:43:23.270Z,17.20
2023-02-11T19:48:23.113Z,21.23
2023-02-11T19:53:23.134Z,20.90
2023-02-11T19:58:21.934Z,20.92
2023-02-11T20:03:20.766Z,17.95
2023-02-11T20:08:19.470Z,16.15
2023-02-11T20:13:18.633Z,20.30
2023-02-11T20:18:17.634Z,16.23
2023-02-11T20:23:16.353Z,14.63
2023-02-11T20:28:15.177Z,19.17
2023-02-11T20:33:13.983Z,22.60
2023-02-11T20:38:12.754Z,17.67
2023-02-11T20:43:11.554Z,14.13
2023-02-11T20:48:11.368Z,15.43
2023-02-11T20:53:11.120Z,15.20
2023-02-11T20:58:09.844Z,14.85
2023-02-11T21:03:08.910Z,15.85
2023-02-11T21:08:07.660Z,17.17
2023-02-11T21:13:06.748Z,15.55
2023-02-11T21:18:05.577Z,17.95
2023-02-11T21:23:04.655Z,14.75
2023-02-11T21:28:04.214Z,19.10
2023-02-11T21:33:03.205Z,20.73
2023-02-11T21:38:02.524Z,18.83
2023-02-11T21:43:01.422Z,21.20
2023-02-11T21:48:00.377Z,18.10
2023-02-11T21:52:59.266Z,18.88
2023-02-11T21:57:58.010Z,20.52
2023-02-11T22:02:56.757Z,19.80
2023-02-11T22:07:55.847Z,18.60
2023-02-11T22:12:54.564Z,17.92
2023-02-11T22:17:53.376Z,19.52
2023-02-11T22:22:52.275Z,18.73
2023-02-11T22:27:51.109Z,18.10
2023-02-11T22:32:50.040Z,20.90
2023-02-11T22:37:48.791Z,21.17
2023-02-11T22:42:47.751Z,23.35
2023-02-11T22:47:46.441Z,25.00
2023-02-11T22:52:45.229Z,20.63
2023-02-11T22:57:44.272Z,22.70
2023-02-11T23:02:43.171Z,25.50
2023-02-11T23:07:41.914Z,22.05
2023-02-11T23:12:40.659Z,27.42
2023-02-11T23:17:39.398Z,28.65
2023-02-11T23:22:38.196Z,28.35
2023-02-11T23:27:36.998Z,27.33
2023-02-11T23:32:38.926Z,30.13
2023-02-11T23:37:37.688Z,24.38
2023-02-11T23:42:36.503Z,25.67
2023-02-11T23:47:35.447Z,27.55
2023-02-11T23:52:34.383Z,30.27
2023-02-11T23:57:33.665Z,34.10
